sensor_id;sensor_type;location;lat;lon;timestamp;pressure;altitude;pressure_sealevel;temperature;humidity
84785;BME280;75017;41.576;24.704;2024-01-30T00:00:42;92393.72;;;-2.10;51.21
84785;BME280;75017;41.576;24.704;2024-01-30T00:03:07;92397.03;;;-2.10;49.56
84785;BME280;75017;41.576;24.704;2024-01-30T00:05:33;92389.97;;;-2.08;49.74
84785;BME280;75017;41.576;24.704;2024-01-30T00:07:58;92400.66;;;-2.06;49.66
84785;BME280;75017;41.576;24.704;2024-01-30T00:10:24;92391.50;;;-2.18;50.24
84785;BME280;75017;41.576;24.704;2024-01-30T00:12:49;92383.44;;;-2.15;49.91
84785;BME280;75017;41.576;24.704;2024-01-30T00:15:15;92383.56;;;-2.10;49.47
84785;BME280;75017;41.576;24.704;2024-01-30T00:17:40;92395.94;;;-2.25;49.67
84785;BME280;75017;41.576;24.704;2024-01-30T00:20:06;92393.59;;;-2.27;50.02
84785;BME280;75017;41.576;24.704;2024-01-30T00:22:34;92402.09;;;-2.21;49.80
84785;BME280;75017;41.576;24.704;2024-01-30T00:25:00;92398.69;;;-2.15;49.64
84785;BME280;75017;41.576;24.704;2024-01-30T00:27:26;92390.41;;;-2.22;49.73
84785;BME280;75017;41.576;24.704;2024-01-30T00:29:52;92397.03;;;-2.21;49.26
84785;BME280;75017;41.576;24.704;2024-01-30T00:32:18;92392.63;;;-2.14;49.09
84785;BME280;75017;41.576;24.704;2024-01-30T00:34:44;92389.84;;;-2.13;49.05
84785;BME280;75017;41.576;24.704;2024-01-30T00:37:10;92391.63;;;-2.13;48.99
84785;BME280;75017;41.576;24.704;2024-01-30T00:39:35;92387.41;;;-2.19;49.88
84785;BME280;75017;41.576;24.704;2024-01-30T00:42:01;92386.44;;;-2.18;49.16
84785;BME280;75017;41.576;24.704;2024-01-30T00:44:26;92377.69;;;-2.11;49.32
84785;BME280;75017;41.576;24.704;2024-01-30T00:46:51;92379.47;;;-2.00;49.83
84785;BME280;75017;41.576;24.704;2024-01-30T00:49:17;92384.09;;;-1.97;49.70
84785;BME280;75017;41.576;24.704;2024-01-30T00:51:42;92371.97;;;-2.18;50.31
84785;BME280;75017;41.576;24.704;2024-01-30T00:54:08;92378.25;;;-2.20;50.17
84785;BME280;75017;41.576;24.704;2024-01-30T00:56:33;92375.81;;;-2.15;49.74
84785;BME280;75017;41.576;24.704;2024-01-30T00:59:00;92372.06;;;-2.24;50.71
84785;BME280;75017;41.576;24.704;2024-01-30T01:01:25;92370.00;;;-2.27;50.95
84785;BME280;75017;41.576;24.704;2024-01-30T01:03:51;92377.03;;;-2.18;50.39
84785;BME280;75017;41.576;24.704;2024-01-30T01:06:16;92380.38;;;-2.17;50.79
84785;BME280;75017;41.576;24.704;2024-01-30T01:08:41;92380.91;;;-2.15;50.61
84785;BME280;75017;41.576;24.704;2024-01-30T01:11:07;92371.84;;;-2.34;51.46
84785;BME280;75017;41.576;24.704;2024-01-30T01:13:32;92373.03;;;-2.49;52.25
84785;BME280;75017;41.576;24.704;2024-01-30T01:15:58;92369.97;;;-2.39;52.27
84785;BME280;75017;41.576;24.704;2024-01-30T01:18:23;92372.72;;;-2.40;52.27
84785;BME280;75017;41.576;24.704;2024-01-30T01:20:49;92373.72;;;-2.41;52.08
84785;BME280;75017;41.576;24.704;2024-01-30T01:23:14;92370.63;;;-2.32;52.19
84785;BME280;75017;41.576;24.704;2024-01-30T01:25:40;92376.94;;;-2.23;51.59
84785;BME280;75017;41.576;24.704;2024-01-30T01:28:05;92378.59;;;-2.28;51.67
84785;BME280;75017;41.576;24.704;2024-01-30T01:30:31;92368.09;;;-2.20;51.45
84785;BME280;75017;41.576;24.704;2024-01-30T01:32:56;92378.34;;;-2.27;51.72
84785;BME280;75017;41.576;24.704;2024-01-30T01:35:25;92369.22;;;-2.28;51.56
84785;BME280;75017;41.576;24.704;2024-01-30T01:37:52;92364.78;;;-2.32;51.84
84785;BME280;75017;41.576;24.704;2024-01-30T01:40:22;92367.88;;;-2.30;51.86
84785;BME280;75017;41.576;24.704;2024-01-30T01:42:52;92360.16;;;-2.35;50.76
84785;BME280;75017;41.576;24.704;2024-01-30T01:45:18;92365.13;;;-2.29;51.04
84785;BME280;75017;41.576;24.704;2024-01-30T01:47:48;92364.03;;;-2.33;50.54
84785;BME280;75017;41.576;24.704;2024-01-30T01:50:16;92362.81;;;-2.30;50.69
84785;BME280;75017;41.576;24.704;2024-01-30T01:52:46;92364.22;;;-2.34;50.79
84785;BME280;75017;41.576;24.704;2024-01-30T01:55:12;92371.41;;;-2.31;50.80
84785;BME280;75017;41.576;24.704;2024-01-30T01:57:38;92366.97;;;-2.24;51.11
84785;BME280;75017;41.576;24.704;2024-01-30T02:00:05;92379.03;;;-2.20;51.50
84785;BME280;75017;41.576;24.704;2024-01-30T02:02:35;92376.16;;;-2.23;51.01
84785;BME280;75017;41.576;24.704;2024-01-30T02:05:01;92379.13;;;-2.26;51.19
84785;BME280;75017;41.576;24.704;2024-01-30T02:07:27;92369.22;;;-2.28;51.33
84785;BME280;75017;41.576;24.704;2024-01-30T02:09:53;92369.19;;;-2.39;51.89
84785;BME280;75017;41.576;24.704;2024-01-30T02:12:19;92374.84;;;-2.26;51.19
84785;BME280;75017;41.576;24.704;2024-01-30T02:14:45;92370.63;;;-2.20;50.22
84785;BME280;75017;41.576;24.704;2024-01-30T02:17:12;92372.72;;;-2.40;51.24
84785;BME280;75017;41.576;24.704;2024-01-30T02:19:38;92379.91;;;-2.49;51.47
84785;BME280;75017;41.576;24.704;2024-01-30T02:22:03;92371.41;;;-2.55;52.13
84785;BME280;75017;41.576;24.704;2024-01-30T02:24:29;92368.28;;;-2.57;52.12
84785;BME280;75017;41.576;24.704;2024-01-30T02:26:55;92369.81;;;-2.67;52.66
84785;BME280;75017;41.576;24.704;2024-01-30T02:29:21;92369.63;;;-2.66;52.29
84785;BME280;75017;41.576;24.704;2024-01-30T02:31:47;92371.59;;;-2.68;52.16
84785;BME280;75017;41.576;24.704;2024-01-30T02:34:13;92375.13;;;-2.69;51.43
84785;BME280;75017;41.576;24.704;2024-01-30T02:36:38;92376.00;;;-2.75;51.60
84785;BME280;75017;41.576;24.704;2024-01-30T02:39:04;92373.44;;;-2.75;50.90
84785;BME280;75017;41.576;24.704;2024-01-30T02:41:30;92373.47;;;-2.63;51.25
84785;BME280;75017;41.576;24.704;2024-01-30T02:43:55;92365.75;;;-2.68;51.26
84785;BME280;75017;41.576;24.704;2024-01-30T02:46:21;92366.66;;;-2.63;50.49
84785;BME280;75017;41.576;24.704;2024-01-30T02:48:47;92363.09;;;-2.62;51.42
84785;BME280;75017;41.576;24.704;2024-01-30T02:51:12;92363.75;;;-2.66;50.77
84785;BME280;75017;41.576;24.704;2024-01-30T02:53:38;92367.75;;;-2.59;51.13
84785;BME280;75017;41.576;24.704;2024-01-30T02:56:03;92359.03;;;-2.63;51.38
84785;BME280;75017;41.576;24.704;2024-01-30T02:58:31;92364.09;;;-2.63;50.28
84785;BME280;75017;41.576;24.704;2024-01-30T03:00:56;92366.41;;;-2.61;50.87
84785;BME280;75017;41.576;24.704;2024-01-30T03:03:22;92360.78;;;-2.63;51.06
84785;BME280;75017;41.576;24.704;2024-01-30T03:05:48;92359.13;;;-2.58;51.24
84785;BME280;75017;41.576;24.704;2024-01-30T03:08:13;92354.72;;;-2.51;50.79
84785;BME280;75017;41.576;24.704;2024-01-30T03:10:38;92359.34;;;-2.59;50.58
84785;BME280;75017;41.576;24.704;2024-01-30T03:13:04;92354.72;;;-2.62;51.35
84785;BME280;75017;41.576;24.704;2024-01-30T03:15:29;92354.53;;;-2.49;50.75
84785;BME280;75017;41.576;24.704;2024-01-30T03:17:55;92350.19;;;-2.49;50.74
84785;BME280;75017;41.576;24.704;2024-01-30T03:20:20;92345.56;;;-2.52;51.20
84785;BME280;75017;41.576;24.704;2024-01-30T03:22:46;92353.19;;;-2.52;50.33
84785;BME280;75017;41.576;24.704;2024-01-30T03:25:11;92349.97;;;-2.59;51.03
84785;BME280;75017;41.576;24.704;2024-01-30T03:27:37;92342.69;;;-2.67;51.50
84785;BME280;75017;41.576;24.704;2024-01-30T03:30:02;92343.88;;;-2.69;51.69
84785;BME280;75017;41.576;24.704;2024-01-30T03:32:28;92349.31;;;-2.66;51.39
84785;BME280;75017;41.576;24.704;2024-01-30T03:34:54;92341.91;;;-2.67;51.56
84785;BME280;75017;41.576;24.704;2024-01-30T03:37:19;92339.59;;;-2.69;51.72
84785;BME280;75017;41.576;24.704;2024-01-30T03:39:45;92339.16;;;-2.66;51.54
84785;BME280;75017;41.576;24.704;2024-01-30T03:42:10;92344.78;;;-2.64;50.76
84785;BME280;75017;41.576;24.704;2024-01-30T03:44:36;92337.94;;;-2.63;51.65
84785;BME280;75017;41.576;24.704;2024-01-30T03:47:01;92333.97;;;-2.71;52.37
84785;BME280;75017;41.576;24.704;2024-01-30T03:49:27;92330.09;;;-2.62;51.48
84785;BME280;75017;41.576;24.704;2024-01-30T03:51:52;92319.94;;;-2.62;51.14
84785;BME280;75017;41.576;24.704;2024-01-30T03:54:18;92328.00;;;-2.53;50.90
84785;BME280;75017;41.576;24.704;2024-01-30T03:56:43;92317.66;;;-2.52;50.57
84785;BME280;75017;41.576;24.704;2024-01-30T03:59:09;92322.28;;;-2.60;51.29
84785;BME280;75017;41.576;24.704;2024-01-30T04:01:34;92322.16;;;-2.54;51.52
84785;BME280;75017;41.576;24.704;2024-01-30T04:04:00;92329.00;;;-2.66;50.87
84785;BME280;75017;41.576;24.704;2024-01-30T04:06:26;92334.28;;;-2.79;52.22
84785;BME280;75017;41.576;24.704;2024-01-30T04:08:51;92328.97;;;-2.77;52.51
84785;BME280;75017;41.576;24.704;2024-01-30T04:11:18;92330.09;;;-2.73;52.25
84785;BME280;75017;41.576;24.704;2024-01-30T04:13:45;92332.06;;;-2.87;52.76
84785;BME280;75017;41.576;24.704;2024-01-30T04:16:22;92317.59;;;-2.98;53.27
84785;BME280;75017;41.576;24.704;2024-01-30T04:18:48;92319.69;;;-2.95;53.51
84785;BME280;75017;41.576;24.704;2024-01-30T04:21:13;92330.94;;;-2.91;53.17
84785;BME280;75017;41.576;24.704;2024-01-30T04:23:40;92332.06;;;-2.87;53.38
84785;BME280;75017;41.576;24.704;2024-01-30T04:26:05;92330.63;;;-2.94;53.42
84785;BME280;75017;41.576;24.704;2024-01-30T04:28:31;92321.91;;;-2.87;52.81
84785;BME280;75017;41.576;24.704;2024-01-30T04:30:57;92316.06;;;-2.87;52.51
84785;BME280;75017;41.576;24.704;2024-01-30T04:33:22;92321.81;;;-2.92;53.14
84785;BME280;75017;41.576;24.704;2024-01-30T04:35:47;92320.56;;;-3.01;53.24
84785;BME280;75017;41.576;24.704;2024-01-30T04:38:13;92321.69;;;-2.97;53.01
84785;BME280;75017;41.576;24.704;2024-01-30T04:40:40;92321.81;;;-2.92;52.90
84785;BME280;75017;41.576;24.704;2024-01-30T04:43:05;92323.22;;;-2.96;52.91
84785;BME280;75017;41.576;24.704;2024-01-30T04:45:31;92320.38;;;-2.88;53.05
84785;BME280;75017;41.576;24.704;2024-01-30T04:47:57;92324.00;;;-2.95;52.63
84785;BME280;75017;41.576;24.704;2024-01-30T04:50:23;92323.22;;;-2.96;52.79
84785;BME280;75017;41.576;24.704;2024-01-30T04:52:48;92329.06;;;-2.95;52.23
84785;BME280;75017;41.576;24.704;2024-01-30T04:55:14;92317.78;;;-2.99;52.44
84785;BME280;75017;41.576;24.704;2024-01-30T04:57:40;92324.84;;;-3.01;53.20
84785;BME280;75017;41.576;24.704;2024-01-30T05:00:06;92329.38;;;-3.03;53.06
84785;BME280;75017;41.576;24.704;2024-01-30T05:02:32;92334.69;;;-3.05;53.25
84785;BME280;75017;41.576;24.704;2024-01-30T05:04:57;92329.31;;;-2.97;52.98
84785;BME280;75017;41.576;24.704;2024-01-30T05:07:24;92323.97;;;-3.07;53.58
84785;BME280;75017;41.576;24.704;2024-01-30T05:09:50;92322.88;;;-2.99;52.74
84785;BME280;75017;41.576;24.704;2024-01-30T05:12:16;92313.06;;;-2.96;52.83
84785;BME280;75017;41.576;24.704;2024-01-30T05:14:41;92312.72;;;-2.99;52.89
84785;BME280;75017;41.576;24.704;2024-01-30T05:17:07;92310.84;;;-3.04;52.91
84785;BME280;75017;41.576;24.704;2024-01-30T05:19:35;92318.47;;;-3.04;53.17
84785;BME280;75017;41.576;24.704;2024-01-30T05:22:00;92325.72;;;-3.08;52.75
84785;BME280;75017;41.576;24.704;2024-01-30T05:24:26;92323.75;;;-3.06;52.48
84785;BME280;75017;41.576;24.704;2024-01-30T05:26:51;92316.47;;;-3.02;52.46
84785;BME280;75017;41.576;24.704;2024-01-30T05:29:17;92319.34;;;-2.98;51.42
84785;BME280;75017;41.576;24.704;2024-01-30T05:31:42;92319.34;;;-2.98;52.25
84785;BME280;75017;41.576;24.704;2024-01-30T05:34:08;92325.28;;;-3.05;52.21
84785;BME280;75017;41.576;24.704;2024-01-30T05:36:34;92325.31;;;-2.93;52.57
84785;BME280;75017;41.576;24.704;2024-01-30T05:39:00;92330.75;;;-2.89;52.73
84785;BME280;75017;41.576;24.704;2024-01-30T05:41:25;92321.47;;;-2.95;52.42
84785;BME280;75017;41.576;24.704;2024-01-30T05:43:51;92331.50;;;-3.00;52.62
84785;BME280;75017;41.576;24.704;2024-01-30T05:46:17;92333.72;;;-2.92;52.34
84785;BME280;75017;41.576;24.704;2024-01-30T05:48:42;92340.84;;;-3.01;53.20
84785;BME280;75017;41.576;24.704;2024-01-30T05:51:08;92339.31;;;-3.02;53.27
84785;BME280;75017;41.576;24.704;2024-01-30T05:53:34;92352.56;;;-3.00;53.10
84785;BME280;75017;41.576;24.704;2024-01-30T05:56:02;92345.94;;;-3.01;53.88
84785;BME280;75017;41.576;24.704;2024-01-30T05:58:28;92356.06;;;-3.01;54.53
84785;BME280;75017;41.576;24.704;2024-01-30T06:00:53;92349.59;;;-2.97;54.86
84785;BME280;75017;41.576;24.704;2024-01-30T06:03:19;92363.03;;;-2.96;54.38
84785;BME280;75017;41.576;24.704;2024-01-30T06:05:44;92350.34;;;-2.96;54.71
84785;BME280;75017;41.576;24.704;2024-01-30T06:08:10;92353.84;;;-3.09;55.23
84785;BME280;75017;41.576;24.704;2024-01-30T06:10:35;92361.69;;;-2.99;55.80
84785;BME280;75017;41.576;24.704;2024-01-30T06:13:01;92364.81;;;-2.85;55.41
84785;BME280;75017;41.576;24.704;2024-01-30T06:15:26;92361.31;;;-2.84;55.01
84785;BME280;75017;41.576;24.704;2024-01-30T06:17:55;92364.63;;;-2.84;55.20
84785;BME280;75017;41.576;24.704;2024-01-30T06:20:20;92370.13;;;-2.75;55.37
84785;BME280;75017;41.576;24.704;2024-01-30T06:22:46;92368.38;;;-2.86;55.68
84785;BME280;75017;41.576;24.704;2024-01-30T06:25:11;92369.13;;;-2.97;56.14
84785;BME280;75017;41.576;24.704;2024-01-30T06:27:37;92365.88;;;-3.05;56.37
84785;BME280;75017;41.576;24.704;2024-01-30T06:30:04;92377.34;;;-3.02;56.53
84785;BME280;75017;41.576;24.704;2024-01-30T06:32:29;92372.50;;;-3.03;56.68
84785;BME280;75017;41.576;24.704;2024-01-30T06:35:02;92372.16;;;-3.07;56.78
84785;BME280;75017;41.576;24.704;2024-01-30T06:37:28;92356.91;;;-3.19;57.03
84785;BME280;75017;41.576;24.704;2024-01-30T06:39:53;92370.44;;;-3.25;58.01
84785;BME280;75017;41.576;24.704;2024-01-30T06:42:19;92370.69;;;-3.15;57.15
84785;BME280;75017;41.576;24.704;2024-01-30T06:44:45;92366.09;;;-3.06;57.16
84785;BME280;75017;41.576;24.704;2024-01-30T06:47:10;92370.94;;;-3.05;56.74
84785;BME280;75017;41.576;24.704;2024-01-30T06:49:36;92362.72;;;-3.00;57.03
84785;BME280;75017;41.576;24.704;2024-01-30T06:52:06;92358.06;;;-3.03;56.54
84785;BME280;75017;41.576;24.704;2024-01-30T06:54:31;92359.28;;;-2.94;56.53
84785;BME280;75017;41.576;24.704;2024-01-30T06:56:58;92367.91;;;-2.95;56.62
84785;BME280;75017;41.576;24.704;2024-01-30T06:59:24;92362.41;;;-2.80;56.60
84785;BME280;75017;41.576;24.704;2024-01-30T07:01:49;92367.16;;;-2.84;56.30
84785;BME280;75017;41.576;24.704;2024-01-30T07:04:15;92373.44;;;-2.75;56.49
84785;BME280;75017;41.576;24.704;2024-01-30T07:06:41;92370.91;;;-2.75;55.65
84785;BME280;75017;41.576;24.704;2024-01-30T07:09:07;92367.84;;;-2.65;55.77
84785;BME280;75017;41.576;24.704;2024-01-30T07:11:33;92366.41;;;-2.61;54.90
84785;BME280;75017;41.576;24.704;2024-01-30T07:13:59;92364.88;;;-2.62;55.53
84785;BME280;75017;41.576;24.704;2024-01-30T07:16:25;92375.03;;;-2.51;55.76
84785;BME280;75017;41.576;24.704;2024-01-30T07:18:50;92370.19;;;-2.40;55.00
84785;BME280;75017;41.576;24.704;2024-01-30T07:21:16;92368.88;;;-2.31;55.44
84785;BME280;75017;41.576;24.704;2024-01-30T07:23:42;92374.81;;;-2.37;55.06
84785;BME280;75017;41.576;24.704;2024-01-30T07:26:08;92382.25;;;-2.36;55.01
84785;BME280;75017;41.576;24.704;2024-01-30T07:28:34;92366.31;;;-2.31;54.44
84785;BME280;75017;41.576;24.704;2024-01-30T07:31:01;92372.28;;;-2.37;55.20
84785;BME280;75017;41.576;24.704;2024-01-30T07:33:27;92366.44;;;-2.26;55.08
84785;BME280;75017;41.576;24.704;2024-01-30T07:35:53;92381.59;;;-2.20;54.21
84785;BME280;75017;41.576;24.704;2024-01-30T07:38:19;92373.16;;;-2.32;54.70
84785;BME280;75017;41.576;24.704;2024-01-30T07:40:44;92384.56;;;-2.23;54.09
84785;BME280;75017;41.576;24.704;2024-01-30T07:43:10;92388.63;;;-2.10;54.62
84785;BME280;75017;41.576;24.704;2024-01-30T07:45:36;92390.41;;;-1.99;54.28
84785;BME280;75017;41.576;24.704;2024-01-30T07:48:07;92380.00;;;-1.98;53.55
84785;BME280;75017;41.576;24.704;2024-01-30T07:50:33;92378.38;;;-2.04;54.45
84785;BME280;75017;41.576;24.704;2024-01-30T07:53:00;92373.84;;;-1.90;53.39
84785;BME280;75017;41.576;24.704;2024-01-30T07:55:26;92373.59;;;-2.00;54.21
84785;BME280;75017;41.576;24.704;2024-01-30T07:57:54;92374.94;;;-2.09;54.02
84785;BME280;75017;41.576;24.704;2024-01-30T08:00:21;92372.16;;;-2.19;53.88
84785;BME280;75017;41.576;24.704;2024-01-30T08:02:47;92370.19;;;-2.06;54.31
84785;BME280;75017;41.576;24.704;2024-01-30T08:05:13;92364.66;;;-1.91;54.38
84785;BME280;75017;41.576;24.704;2024-01-30T08:07:43;92354.00;;;-1.76;53.95
84785;BME280;75017;41.576;24.704;2024-01-30T08:10:11;92354.28;;;-1.50;53.62
84785;BME280;75017;41.576;24.704;2024-01-30T08:12:36;92354.69;;;-1.41;52.08
84785;BME280;75017;41.576;24.704;2024-01-30T08:15:02;92360.34;;;-1.39;52.92
84785;BME280;75017;41.576;24.704;2024-01-30T08:17:28;92362.66;;;-1.38;52.19
84785;BME280;75017;41.576;24.704;2024-01-30T08:19:54;92355.28;;;-1.23;52.02
84785;BME280;75017;41.576;24.704;2024-01-30T08:22:19;92364.88;;;-1.13;50.98
84785;BME280;75017;41.576;24.704;2024-01-30T08:24:45;92368.69;;;-0.99;51.43
84785;BME280;75017;41.576;24.704;2024-01-30T08:27:10;92375.00;;;-1.30;51.39
84785;BME280;75017;41.576;24.704;2024-01-30T08:29:36;92374.56;;;-1.27;52.29
84785;BME280;75017;41.576;24.704;2024-01-30T08:32:02;92383.84;;;-1.20;53.00
84785;BME280;75017;41.576;24.704;2024-01-30T08:34:27;92376.59;;;-1.40;51.62
84785;BME280;75017;41.576;24.704;2024-01-30T08:36:53;92379.66;;;-1.27;51.75
84785;BME280;75017;41.576;24.704;2024-01-30T08:39:18;92381.78;;;-1.35;52.48
84785;BME280;75017;41.576;24.704;2024-01-30T08:41:44;92377.97;;;-1.61;53.67
84785;BME280;75017;41.576;24.704;2024-01-30T08:44:10;92377.41;;;-1.63;53.63
84785;BME280;75017;41.576;24.704;2024-01-30T08:46:36;92392.31;;;-1.55;53.50
84785;BME280;75017;41.576;24.704;2024-01-30T08:49:02;92377.97;;;-1.61;53.02
84785;BME280;75017;41.576;24.704;2024-01-30T08:51:29;92389.81;;;-1.78;53.75
84785;BME280;75017;41.576;24.704;2024-01-30T08:53:55;92398.88;;;-1.70;54.27
84785;BME280;75017;41.576;24.704;2024-01-30T08:56:20;92392.66;;;-1.63;53.79
84785;BME280;75017;41.576;24.704;2024-01-30T08:58:46;92387.34;;;-1.50;53.94
84785;BME280;75017;41.576;24.704;2024-01-30T09:01:11;92391.31;;;-1.42;52.66
84785;BME280;75017;41.576;24.704;2024-01-30T09:03:37;92400.03;;;-1.38;52.69
84785;BME280;75017;41.576;24.704;2024-01-30T09:06:08;92388.28;;;-1.28;52.92
84785;BME280;75017;41.576;24.704;2024-01-30T09:08:34;92396.31;;;-1.19;52.66
84785;BME280;75017;41.576;24.704;2024-01-30T09:10:59;92394.03;;;-1.20;52.64
84785;BME280;75017;41.576;24.704;2024-01-30T09:13:25;92398.63;;;-1.17;52.00
84785;BME280;75017;41.576;24.704;2024-01-30T09:15:50;92392.63;;;-1.11;52.46
84785;BME280;75017;41.576;24.704;2024-01-30T09:18:16;92390.59;;;-1.26;53.21
84785;BME280;75017;41.576;24.704;2024-01-30T09:20:41;92386.09;;;-1.36;52.55
84785;BME280;75017;41.576;24.704;2024-01-30T09:23:07;92382.91;;;-1.43;53.43
84785;BME280;75017;41.576;24.704;2024-01-30T09:25:33;92389.88;;;-1.50;53.59
84785;BME280;75017;41.576;24.704;2024-01-30T09:27:59;92387.31;;;-1.38;53.53
84785;BME280;75017;41.576;24.704;2024-01-30T09:30:25;92382.28;;;-1.22;53.79
84785;BME280;75017;41.576;24.704;2024-01-30T09:32:50;92381.41;;;-1.27;53.27
84785;BME280;75017;41.576;24.704;2024-01-30T09:35:16;92381.31;;;-1.20;52.80
84785;BME280;75017;41.576;24.704;2024-01-30T09:37:41;92370.00;;;-1.25;52.51
84785;BME280;75017;41.576;24.704;2024-01-30T09:40:07;92380.97;;;-1.24;53.00
84785;BME280;75017;41.576;24.704;2024-01-30T09:42:34;92383.97;;;-1.27;52.66
84785;BME280;75017;41.576;24.704;2024-01-30T09:45:01;92367.66;;;-1.14;52.34
84785;BME280;75017;41.576;24.704;2024-01-30T09:47:31;92381.66;;;-1.00;52.51
84785;BME280;75017;41.576;24.704;2024-01-30T09:49:57;92376.81;;;-0.85;52.78
84785;BME280;75017;41.576;24.704;2024-01-30T09:52:23;92372.31;;;-0.95;52.56
84785;BME280;75017;41.576;24.704;2024-01-30T09:54:49;92369.34;;;-0.75;51.19
84785;BME280;75017;41.576;24.704;2024-01-30T09:57:16;92373.31;;;-0.68;51.28
84785;BME280;75017;41.576;24.704;2024-01-30T09:59:42;92365.50;;;-0.61;51.45
84785;BME280;75017;41.576;24.704;2024-01-30T10:02:09;92364.50;;;-0.60;51.60
84785;BME280;75017;41.576;24.704;2024-01-30T10:04:35;92364.28;;;-0.42;51.75
84785;BME280;75017;41.576;24.704;2024-01-30T10:07:02;92363.50;;;-0.26;50.47
84785;BME280;75017;41.576;24.704;2024-01-30T10:09:28;92363.25;;;-0.08;50.82
84785;BME280;75017;41.576;24.704;2024-01-30T10:11:53;92351.06;;;-0.06;50.90
84785;BME280;75017;41.576;24.704;2024-01-30T10:14:19;92348.16;;;0.08;50.18
84785;BME280;75017;41.576;24.704;2024-01-30T10:16:46;92355.19;;;0.00;49.62
84785;BME280;75017;41.576;24.704;2024-01-30T10:19:11;92345.06;;;0.06;48.49
84785;BME280;75017;41.576;24.704;2024-01-30T10:21:37;92342.84;;;-0.08;50.75
84785;BME280;75017;41.576;24.704;2024-01-30T10:24:03;92344.06;;;0.07;49.84
84785;BME280;75017;41.576;24.704;2024-01-30T10:26:28;92340.19;;;0.04;50.55
84785;BME280;75017;41.576;24.704;2024-01-30T10:28:55;92341.16;;;0.20;49.74
84785;BME280;75017;41.576;24.704;2024-01-30T10:31:20;92341.13;;;0.36;48.94
84785;BME280;75017;41.576;24.704;2024-01-30T10:33:46;92338.09;;;0.61;48.25
84785;BME280;75017;41.576;24.704;2024-01-30T10:36:13;92339.16;;;0.43;49.43
84785;BME280;75017;41.576;24.704;2024-01-30T10:38:42;92339.41;;;0.42;49.93
84785;BME280;75017;41.576;24.704;2024-01-30T10:41:08;92337.72;;;0.09;49.70
84785;BME280;75017;41.576;24.704;2024-01-30T10:43:41;92339.16;;;-0.17;49.22
84785;BME280;75017;41.576;24.704;2024-01-30T10:46:17;92341.34;;;-0.25;51.03
84785;BME280;75017;41.576;24.704;2024-01-30T10:48:50;92340.88;;;-0.55;51.26
84785;BME280;75017;41.576;24.704;2024-01-30T10:51:22;92347.34;;;-0.48;51.65
84785;BME280;75017;41.576;24.704;2024-01-30T10:53:49;92344.75;;;-0.36;51.58
84785;BME280;75017;41.576;24.704;2024-01-30T10:56:15;92339.63;;;-0.20;51.83
84785;BME280;75017;41.576;24.704;2024-01-30T10:58:41;92340.69;;;-0.16;50.83
84785;BME280;75017;41.576;24.704;2024-01-30T11:01:07;92345.75;;;0.18;50.57
84785;BME280;75017;41.576;24.704;2024-01-30T11:03:34;92339.47;;;0.47;48.88
84785;BME280;75017;41.576;24.704;2024-01-30T11:06:02;92345.38;;;0.09;48.86
84785;BME280;75017;41.576;24.704;2024-01-30T11:08:28;92348.50;;;0.16;49.13
84785;BME280;75017;41.576;24.704;2024-01-30T11:10:57;92329.72;;;0.22;47.42
84785;BME280;75017;41.576;24.704;2024-01-30T11:13:29;92335.28;;;0.19;49.03
84785;BME280;75017;41.576;24.704;2024-01-30T11:15:55;92342.34;;;0.12;48.67
84785;BME280;75017;41.576;24.704;2024-01-30T11:18:25;92344.66;;;0.14;47.54
84785;BME280;75017;41.576;24.704;2024-01-30T11:20:51;92327.31;;;0.11;48.46
84785;BME280;75017;41.576;24.704;2024-01-30T11:23:18;92329.13;;;-0.23;50.20
84785;BME280;75017;41.576;24.704;2024-01-30T11:25:44;92331.53;;;-0.50;50.43
84785;BME280;75017;41.576;24.704;2024-01-30T11:28:15;92333.09;;;-0.32;51.39
84785;BME280;75017;41.576;24.704;2024-01-30T11:30:41;92323.44;;;-0.30;49.82
84785;BME280;75017;41.576;24.704;2024-01-30T11:33:09;92320.81;;;-0.35;50.35
84785;BME280;75017;41.576;24.704;2024-01-30T11:35:38;92320.03;;;-0.19;49.14
84785;BME280;75017;41.576;24.704;2024-01-30T11:38:05;92323.56;;;-0.20;50.02
84785;BME280;75017;41.576;24.704;2024-01-30T11:40:32;92321.84;;;-0.15;50.62
84785;BME280;75017;41.576;24.704;2024-01-30T11:42:59;92311.78;;;-0.05;49.33
84785;BME280;75017;41.576;24.704;2024-01-30T11:45:26;92302.59;;;0.16;48.63
84785;BME280;75017;41.576;24.704;2024-01-30T11:47:53;92305.81;;;0.28;47.94
84785;BME280;75017;41.576;24.704;2024-01-30T11:50:19;92315.31;;;0.33;48.82
84785;BME280;75017;41.576;24.704;2024-01-30T11:52:44;92312.28;;;0.36;47.10
84785;BME280;75017;41.576;24.704;2024-01-30T11:55:10;92297.22;;;0.13;48.72
84785;BME280;75017;41.576;24.704;2024-01-30T11:57:36;92304.44;;;-0.01;48.79
84785;BME280;75017;41.576;24.704;2024-01-30T12:00:05;92299.06;;;-0.21;49.74
84785;BME280;75017;41.576;24.704;2024-01-30T12:02:41;92299.44;;;-0.13;48.58
84785;BME280;75017;41.576;24.704;2024-01-30T12:05:07;92303.16;;;-0.04;48.44
84785;BME280;75017;41.576;24.704;2024-01-30T12:07:33;92308.84;;;0.04;48.89
84785;BME280;75017;41.576;24.704;2024-01-30T12:09:59;92304.19;;;0.00;48.45
84785;BME280;75017;41.576;24.704;2024-01-30T12:12:26;92304.94;;;-0.21;49.07
84785;BME280;75017;41.576;24.704;2024-01-30T12:14:52;92304.50;;;0.04;48.92
84785;BME280;75017;41.576;24.704;2024-01-30T12:17:28;92292.28;;;-0.16;49.21
84785;BME280;75017;41.576;24.704;2024-01-30T12:20:05;92299.78;;;-0.26;49.34
84785;BME280;75017;41.576;24.704;2024-01-30T12:22:46;92299.91;;;-0.16;50.27
84785;BME280;75017;41.576;24.704;2024-01-30T12:25:16;92295.63;;;-0.32;50.52
84785;BME280;75017;41.576;24.704;2024-01-30T12:27:47;92298.72;;;-0.30;50.24
84785;BME280;75017;41.576;24.704;2024-01-30T12:30:16;92300.31;;;-0.24;49.89
84785;BME280;75017;41.576;24.704;2024-01-30T12:32:44;92283.59;;;-0.53;51.34
84785;BME280;75017;41.576;24.704;2024-01-30T12:35:11;92301.22;;;-0.51;51.79
84785;BME280;75017;41.576;24.704;2024-01-30T12:37:37;92288.56;;;-0.46;49.56
84785;BME280;75017;41.576;24.704;2024-01-30T12:40:03;92293.13;;;-0.48;50.67
84785;BME280;75017;41.576;24.704;2024-01-30T12:42:29;92297.41;;;-0.32;50.85
84785;BME280;75017;41.576;24.704;2024-01-30T12:44:57;92289.69;;;-0.37;50.09